createdAt,value
2023-05-14T00:02:02.528Z,15.55
2023-05-14T00:04:30.163Z,17.95
2023-05-14T00:06:57.709Z,16.40
2023-05-14T00:09:25.275Z,14.85
2023-05-14T00:11:53.069Z,19.33
2023-05-14T00:14:20.587Z,16.63
2023-05-14T00:16:48.128Z,17.75
2023-05-14T00:19:15.872Z,18.90
2023-05-14T00:21:43.409Z,17.23
2023-05-14T00:24:11.012Z,17.52
2023-05-14T00:26:38.489Z,17.60
2023-05-14T00:29:06.482Z,19.25
2023-05-14T00:31:33.916Z,20.88
2023-05-14T00:34:01.708Z,25.42
2023-05-14T00:36:29.288Z,21.83
2023-05-14T00:38:56.836Z,20.20
2023-05-14T00:41:24.466Z,25.15
2023-05-14T00:43:52.063Z,26.05
2023-05-14T00:46:19.675Z,26.00
2023-05-14T00:48:47.513Z,21.88
2023-05-14T00:51:15.059Z,25.92
2023-05-14T00:53:42.860Z,21.35
2023-05-14T00:56:11.065Z,23.60
2023-05-14T00:58:38.683Z,21.00
2023-05-14T01:01:06.323Z,21.45
2023-05-14T01:03:34.941Z,18.55
2023-05-14T01:06:22.101Z,20.98
2023-05-14T01:09:27.035Z,17.23
2023-05-14T01:12:16.644Z,19.98
2023-05-14T01:15:11.356Z,16.52
2023-05-14T01:17:58.909Z,18.45
2023-05-14T01:20:27.379Z,18.70
2023-05-14T01:22:54.848Z,21.30
2023-05-14T01:25:22.345Z,19.40
2023-05-14T01:27:55.977Z,19.77
2023-05-14T01:30:40.660Z,18.83
2023-05-14T01:33:13.298Z,19.13
2023-05-14T01:35:42.454Z,22.67
2023-05-14T01:38:12.086Z,20.77
2023-05-14T01:40:40.494Z,18.30
2023-05-14T01:43:09.001Z,21.33
2023-05-14T01:45:37.149Z,21.58
2023-05-14T01:48:06.054Z,22.08
2023-05-14T01:50:33.688Z,21.58
2023-05-14T01:53:01.323Z,18.55
2023-05-14T01:55:28.891Z,24.80
2023-05-14T01:57:56.581Z,22.20
2023-05-14T02:00:27.942Z,25.58
2023-05-14T02:02:55.474Z,27.83
2023-05-14T02:05:23.973Z,30.50
2023-05-14T02:07:51.649Z,25.05
2023-05-14T02:10:19.233Z,30.15
2023-05-14T02:12:50.328Z,31.10
2023-05-14T02:15:17.872Z,32.70
2023-05-14T02:17:45.471Z,34.30
2023-05-14T02:20:13.363Z,34.03
2023-05-14T02:22:45.935Z,30.08
2023-05-14T02:25:13.403Z,33.47
2023-05-14T02:27:40.877Z,41.47
2023-05-14T02:30:09.747Z,37.10
2023-05-14T02:32:38.003Z,42.88
2023-05-14T02:35:05.978Z,43.13
2023-05-14T02:37:35.044Z,41.03
2023-05-14T02:40:02.521Z,44.15
2023-05-14T02:42:31.062Z,38.00
2023-05-14T02:44:58.655Z,40.30
2023-05-14T02:47:27.311Z,48.28
2023-05-14T02:49:54.940Z,45.53
2023-05-14T02:52:22.452Z,48.92
2023-05-14T02:54:49.893Z,48.58
2023-05-14T02:57:17.419Z,49.00
2023-05-14T02:59:44.905Z,51.80
2023-05-14T03:02:12.995Z,50.63
2023-05-14T03:04:41.066Z,49.45
2023-05-14T03:07:08.601Z,52.33
2023-05-14T03:09:38.126Z,54.25
2023-05-14T03:12:07.027Z,52.58
2023-05-14T03:14:34.580Z,55.50
2023-05-14T03:17:02.422Z,62.45
2023-05-14T03:19:30.029Z,57.15
2023-05-14T03:21:57.571Z,60.13
2023-05-14T03:24:25.022Z,54.83
2023-05-14T03:26:52.525Z,56.95
2023-05-14T03:29:20.018Z,61.63
2023-05-14T03:31:47.535Z,61.00
2023-05-14T03:34:15.408Z,62.55
2023-05-14T03:36:43.074Z,66.03
2023-05-14T03:39:10.499Z,65.47
2023-05-14T03:41:39.579Z,70.55
2023-05-14T03:44:07.154Z,88.03
2023-05-14T03:46:34.861Z,78.57
2023-05-14T03:49:02.851Z,82.25
2023-05-14T03:51:30.446Z,80.53
2023-05-14T03:53:58.668Z,84.13
2023-05-14T03:56:26.507Z,85.45
2023-05-14T03:58:54.078Z,77.90
2023-05-14T04:01:21.504Z,86.43
2023-05-14T04:03:49.157Z,89.65
2023-05-14T04:06:16.747Z,83.90
2023-05-14T04:08:44.341Z,80.75
2023-05-14T04:11:12.247Z,85.72
2023-05-14T04:13:39.788Z,80.00
2023-05-14T04:16:07.732Z,88.22
2023-05-14T04:18:36.098Z,82.25
2023-05-14T04:21:03.690Z,84.03
2023-05-14T04:23:32.138Z,74.95
2023-05-14T04:25:59.782Z,76.40
2023-05-14T04:28:27.265Z,78.72
2023-05-14T04:30:54.699Z,73.95
2023-05-14T04:33:22.199Z,67.70
2023-05-14T04:35:49.675Z,75.40
2023-05-14T04:38:17.394Z,66.25
2023-05-14T04:40:44.856Z,68.47
2023-05-14T04:43:12.432Z,67.10
2023-05-14T04:45:41.352Z,69.32
2023-05-14T04:48:09.258Z,77.82
2023-05-14T04:50:36.715Z,70.03
2023-05-14T04:53:04.282Z,68.35
2023-05-14T04:55:32.012Z,75.70
2023-05-14T04:57:59.442Z,71.05
2023-05-14T05:00:27.375Z,73.00
2023-05-14T05:02:55.086Z,72.18
2023-05-14T05:05:22.861Z,67.60
2023-05-14T05:07:50.335Z,72.15
2023-05-14T05:10:17.865Z,68.35
2023-05-14T05:12:46.158Z,73.60
2023-05-14T05:15:13.669Z,77.20
2023-05-14T05:17:42.165Z,74.95
2023-05-14T05:20:10.446Z,72.43
2023-05-14T05:22:38.254Z,79.25
2023-05-14T05:25:06.594Z,75.60
2023-05-14T05:27:34.406Z,80.50
2023-05-14T05:30:02.490Z,77.65
2023-05-14T05:32:31.725Z,76.05
2023-05-14T05:34:59.305Z,73.88
2023-05-14T05:37:26.800Z,73.88
2023-05-14T05:39:55.588Z,79.30
2023-05-14T05:42:23.036Z,82.03
2023-05-14T05:44:50.477Z,76.22
2023-05-14T05:47:18.093Z,88.15
2023-05-14T05:49:45.605Z,74.28
2023-05-14T05:52:13.314Z,75.65
2023-05-14T05:54:40.817Z,74.45
2023-05-14T05:57:08.341Z,75.13
2023-05-14T05:59:36.465Z,75.20
2023-05-14T06:02:04.122Z,75.32
2023-05-14T06:04:31.591Z,78.50
2023-05-14T06:06:59.065Z,73.57
2023-05-14T06:09:26.689Z,73.95
2023-05-14T06:11:54.428Z,72.57
2023-05-14T06:14:22.142Z,75.32
2023-05-14T06:16:49.694Z,69.80
2023-05-14T06:19:17.303Z,72.68
2023-05-14T06:21:44.923Z,70.07
2023-05-14T06:24:13.582Z,70.78
2023-05-14T06:26:41.184Z,64.93
2023-05-14T06:29:08.722Z,65.05
2023-05-14T06:31:36.158Z,69.00
2023-05-14T06:34:03.998Z,63.20
2023-05-14T06:36:31.445Z,68.35
2023-05-14T06:38:58.964Z,66.35
2023-05-14T06:41:26.519Z,67.00
2023-05-14T06:43:54.030Z,67.97
2023-05-14T06:46:22.002Z,70.78
2023-05-14T06:48:49.588Z,68.47
2023-05-14T06:51:17.165Z,66.95
2023-05-14T06:53:44.657Z,77.20
2023-05-14T06:56:13.258Z,70.15
2023-05-14T06:58:40.940Z,71.05
2023-05-14T07:01:08.441Z,74.55
2023-05-14T07:03:36.242Z,77.10
2023-05-14T07:06:04.024Z,77.32
2023-05-14T07:08:31.513Z,77.30
2023-05-14T07:10:59.137Z,79.65
2023-05-14T07:13:28.888Z,79.60
2023-05-14T07:15:56.548Z,77.05
2023-05-14T07:18:24.413Z,78.88
2023-05-14T07:20:51.859Z,81.10
2023-05-14T07:23:20.034Z,79.97
2023-05-14T07:25:47.678Z,84.30
2023-05-14T07:28:15.208Z,85.70
2023-05-14T07:30:42.611Z,83.38
2023-05-14T07:33:10.272Z,86.45
2023-05-14T07:35:37.789Z,85.80
2023-05-14T07:38:06.171Z,83.82
2023-05-14T07:40:33.649Z,85.05
2023-05-14T07:43:01.203Z,87.45
2023-05-14T07:45:28.696Z,86.45
2023-05-14T07:47:56.550Z,95.13
2023-05-14T07:50:24.555Z,90.18
2023-05-14T07:52:52.149Z,95.82
2023-05-14T07:55:19.712Z,90.00
2023-05-14T07:57:47.343Z,92.43
2023-05-14T08:00:16.272Z,88.30
2023-05-14T08:02:45.163Z,87.22
2023-05-14T08:05:13.019Z,84.93
2023-05-14T08:07:40.699Z,88.90
2023-05-14T08:10:08.865Z,85.70
2023-05-14T08:12:36.556Z,83.63
2023-05-14T08:15:04.395Z,83.22
2023-05-14T08:17:32.396Z,83.70
2023-05-14T08:19:59.884Z,86.13
2023-05-14T08:22:27.362Z,88.43
2023-05-14T08:24:54.772Z,85.28
2023-05-14T08:27:23.280Z,82.43
2023-05-14T08:29:51.714Z,78.85
2023-05-14T08:32:23.448Z,80.28
2023-05-14T08:34:52.157Z,75.32
2023-05-14T08:37:19.824Z,84.75
2023-05-14T08:39:47.406Z,81.47
2023-05-14T08:42:21.086Z,73.75
2023-05-14T08:44:50.426Z,77.20
2023-05-14T08:47:21.129Z,76.78
2023-05-14T08:49:59.155Z,76.25
2023-05-14T08:52:26.893Z,80.80
2023-05-14T08:54:55.998Z,78.78
2023-05-14T08:57:26.838Z,86.75
2023-05-14T08:59:54.592Z,73.20
2023-05-14T09:02:25.658Z,73.22
2023-05-14T09:04:56.976Z,67.80
2023-05-14T09:07:25.065Z,71.22
2023-05-14T09:09:53.739Z,66.35
2023-05-14T09:12:21.891Z,64.30
2023-05-14T09:14:50.681Z,71.07
2023-05-14T09:17:19.162Z,73.88
2023-05-14T09:19:49.411Z,74.78
2023-05-14T09:22:18.420Z,70.15
2023-05-14T09:24:46.606Z,67.60
2023-05-14T09:27:22.766Z,79.60
2023-05-14T09:29:50.200Z,66.03
2023-05-14T09:32:18.416Z,56.65
2023-05-14T09:34:45.926Z,57.75
2023-05-14T09:37:13.495Z,54.10
2023-05-14T09:39:41.076Z,52.08
2023-05-14T09:42:08.649Z,52.38
2023-05-14T09:44:38.312Z,51.80
2023-05-14T09:47:06.513Z,55.08
2023-05-14T09:49:34.587Z,55.70
2023-05-14T09:52:03.865Z,48.22
2023-05-14T09:54:33.407Z,38.83
2023-05-14T09:57:01.132Z,40.25
2023-05-14T09:59:28.671Z,35.70
2023-05-14T10:01:57.743Z,36.83
2023-05-14T10:04:25.854Z,38.85
2023-05-14T10:06:54.617Z,38.05
2023-05-14T10:09:26.579Z,42.85
2023-05-14T10:11:58.200Z,42.97
2023-05-14T10:14:33.090Z,39.60
2023-05-14T10:17:02.245Z,41.25
2023-05-14T10:19:34.633Z,40.67
2023-05-14T10:22:08.226Z,39.97
2023-05-14T10:24:39.112Z,41.78
2023-05-14T10:27:07.119Z,44.63
2023-05-14T10:29:36.256Z,43.42
2023-05-14T10:32:08.633Z,38.67
2023-05-14T10:34:41.864Z,39.97
2023-05-14T10:37:14.612Z,39.58
2023-05-14T10:39:54.218Z,33.90
2023-05-14T10:42:22.884Z,35.85
2023-05-14T10:44:59.026Z,37.72
2023-05-14T10:47:27.889Z,36.58
2023-05-14T10:49:58.461Z,36.78
2023-05-14T10:52:26.812Z,37.85
2023-05-14T10:54:56.666Z,40.47
2023-05-14T10:57:27.890Z,40.88
2023-05-14T10:59:58.018Z,39.55
2023-05-14T11:02:27.649Z,43.83
2023-05-14T11:05:04.225Z,38.95
2023-05-14T11:07:38.206Z,39.95
2023-05-14T11:10:07.743Z,46.30
2023-05-14T11:12:37.378Z,45.03
2023-05-14T11:15:07.860Z,46.00
2023-05-14T11:17:36.757Z,49.10
2023-05-14T11:20:08.337Z,46.25
2023-05-14T11:22:37.638Z,47.97
2023-05-14T11:25:06.655Z,48.88
2023-05-14T11:27:36.302Z,47.22
2023-05-14T11:30:04.334Z,47.92
2023-05-14T11:32:33.740Z,51.70
2023-05-14T11:35:01.465Z,49.13
2023-05-14T11:37:30.927Z,51.15
2023-05-14T11:40:01.282Z,47.45
2023-05-14T11:42:31.379Z,46.08
2023-05-14T11:44:59.942Z,46.22
2023-05-14T11:47:31.937Z,45.63
2023-05-14T11:50:00.406Z,44.58
2023-05-14T11:52:28.000Z,44.17
2023-05-14T11:54:55.614Z,44.15
2023-05-14T11:57:23.596Z,44.35
2023-05-14T11:59:59.254Z,45.00
2023-05-14T12:02:30.784Z,42.95
2023-05-14T12:04:58.437Z,47.80
2023-05-14T12:07:30.752Z,46.35
2023-05-14T12:10:02.225Z,45.47
2023-05-14T12:12:36.202Z,47.38
2023-05-14T12:15:11.781Z,45.80
2023-05-14T12:17:40.124Z,42.67
2023-05-14T12:20:12.628Z,44.60
2023-05-14T12:22:42.945Z,46.78
2023-05-14T12:25:14.371Z,45.40
2023-05-14T12:27:46.493Z,42.13
2023-05-14T12:32:46.192Z,42.83
2023-05-14T12:35:13.712Z,42.65
2023-05-14T12:37:42.175Z,45.75
2023-05-14T12:40:10.376Z,44.55
2023-05-14T12:42:38.124Z,45.58
2023-05-14T12:45:08.276Z,52.75
2023-05-14T12:47:37.501Z,47.45
2023-05-14T12:50:06.333Z,47.53
2023-05-14T12:52:38.501Z,48.45
2023-05-14T12:55:07.776Z,49.47
2023-05-14T12:57:35.839Z,51.75
2023-05-14T13:00:08.268Z,54.53
2023-05-14T13:02:42.685Z,51.60
2023-05-14T13:05:12.189Z,61.42
2023-05-14T13:07:39.866Z,68.60
2023-05-14T13:10:07.837Z,63.95
2023-05-14T13:12:35.328Z,70.70
2023-05-14T13:15:02.840Z,65.63
2023-05-14T13:17:32.770Z,63.75
2023-05-14T13:20:00.268Z,68.25
2023-05-14T13:22:27.863Z,74.18
2023-05-14T13:24:55.251Z,75.05
2023-05-14T13:27:22.726Z,77.07
2023-05-14T13:29:50.147Z,80.65
2023-05-14T13:32:17.632Z,75.70
2023-05-14T13:34:45.160Z,75.55
2023-05-14T13:37:12.688Z,76.65
2023-05-14T13:39:41.171Z,66.45
2023-05-14T13:42:08.821Z,74.82
2023-05-14T13:44:36.578Z,69.82
2023-05-14T13:47:04.596Z,65.53
2023-05-14T13:49:32.108Z,66.72
2023-05-14T13:51:59.625Z,68.78
2023-05-14T13:54:27.213Z,68.72
2023-05-14T13:56:54.745Z,66.20
2023-05-14T13:59:22.366Z,66.88
2023-05-14T14:01:51.030Z,69.90
2023-05-14T14:04:20.155Z,68.18
2023-05-14T14:06:47.609Z,69.00
2023-05-14T14:09:15.112Z,68.32
2023-05-14T14:11:42.819Z,69.03
2023-05-14T14:14:10.285Z,65.18
2023-05-14T14:16:37.926Z,62.70
2023-05-14T14:19:08.008Z,67.18
2023-05-14T14:21:38.273Z,66.78
2023-05-14T14:24:06.600Z,63.53
2023-05-14T14:26:34.132Z,63.55
2023-05-14T14:29:01.902Z,59.95
2023-05-14T14:31:29.476Z,62.65
2023-05-14T14:33:57.038Z,60.92
2023-05-14T14:36:24.652Z,56.63
2023-05-14T14:38:52.143Z,54.47
2023-05-14T14:41:19.727Z,55.22
2023-05-14T14:43:47.235Z,51.53
2023-05-14T14:46:14.821Z,52.22
2023-05-14T14:48:42.441Z,47.58
2023-05-14T14:51:10.171Z,47.08
2023-05-14T14:53:37.719Z,39.38
2023-05-14T14:56:05.675Z,43.25
2023-05-14T14:58:33.342Z,41.05
2023-05-14T15:01:01.637Z,41.92
2023-05-14T15:03:29.598Z,41.03
2023-05-14T15:05:57.362Z,40.50
2023-05-14T15:08:29.000Z,38.67
2023-05-14T15:10:57.073Z,39.33
2023-05-14T15:13:24.969Z,33.33
2023-05-14T15:15:52.972Z,35.25
2023-05-14T15:18:20.864Z,31.48
2023-05-14T15:20:48.708Z,33.38
2023-05-14T15:23:16.348Z,29.35
2023-05-14T15:25:43.893Z,29.88
2023-05-14T15:28:11.640Z,31.77
2023-05-14T15:30:39.128Z,29.08
2023-05-14T15:33:08.919Z,30.40
2023-05-14T15:35:36.905Z,27.42
2023-05-14T15:38:04.562Z,28.88
2023-05-14T15:40:33.543Z,31.13
2023-05-14T15:43:01.139Z,28.77
2023-05-14T15:45:28.771Z,31.17
2023-05-14T15:47:56.265Z,29.92
2023-05-14T15:50:24.014Z,29.85
2023-05-14T15:52:51.544Z,28.02
2023-05-14T15:55:19.094Z,30.20
2023-05-14T15:57:47.540Z,27.27
2023-05-14T16:00:15.437Z,27.15
2023-05-14T16:02:43.069Z,27.40
2023-05-14T16:05:10.712Z,30.92
2023-05-14T16:07:38.941Z,27.05
2023-05-14T16:10:07.335Z,25.35
2023-05-14T16:12:34.996Z,25.38
2023-05-14T16:15:02.520Z,28.25
2023-05-14T16:17:33.105Z,27.42
2023-05-14T16:20:01.557Z,26.08
2023-05-14T16:22:32.233Z,29.20
2023-05-14T16:25:01.830Z,27.70
2023-05-14T16:27:31.903Z,27.80
2023-05-14T16:29:59.498Z,24.58
2023-05-14T16:32:27.982Z,27.05
2023-05-14T16:34:56.733Z,28.83
2023-05-14T16:37:24.249Z,27.95
2023-05-14T16:39:51.735Z,23.52
2023-05-14T16:42:19.270Z,25.45
2023-05-14T16:44:46.794Z,24.92
2023-05-14T16:47:14.419Z,26.48
2023-05-14T16:49:41.933Z,25.38
2023-05-14T16:52:09.461Z,24.75
2023-05-14T16:54:37.280Z,23.83
2023-05-14T16:57:05.376Z,24.40
2023-05-14T16:59:32.857Z,24.20
2023-05-14T17:02:00.624Z,22.58
2023-05-14T17:04:28.328Z,24.80
2023-05-14T17:06:57.623Z,24.73
2023-05-14T17:09:25.328Z,25.33
2023-05-14T17:11:52.911Z,21.92
2023-05-14T17:14:20.404Z,24.02
2023-05-14T17:16:47.923Z,21.92
2023-05-14T17:19:15.819Z,23.52
2023-05-14T17:21:43.327Z,24.08
2023-05-14T17:24:10.787Z,23.77
2023-05-14T17:26:38.379Z,22.65
2023-05-14T17:29:06.136Z,20.63
2023-05-14T17:31:33.749Z,24.45
2023-05-14T17:34:01.383Z,22.05
2023-05-14T17:36:28.889Z,19.15
2023-05-14T17:38:56.423Z,17.33
2023-05-14T17:41:23.884Z,18.42
2023-05-14T17:43:52.823Z,18.00
2023-05-14T17:46:21.797Z,18.95
2023-05-14T17:48:49.293Z,19.02
2023-05-14T17:51:16.703Z,20.92
2023-05-14T17:53:44.329Z,17.38
2023-05-14T17:56:11.854Z,16.77
2023-05-14T17:58:39.319Z,17.65
2023-05-14T18:01:08.276Z,16.25
2023-05-14T18:03:35.921Z,16.13
2023-05-14T18:06:03.568Z,15.63
2023-05-14T18:08:31.109Z,16.95
2023-05-14T18:11:01.047Z,15.07
2023-05-14T18:13:28.568Z,15.77
2023-05-14T18:15:56.873Z,15.43
2023-05-14T18:18:24.609Z,13.15
2023-05-14T18:20:52.852Z,15.85
2023-05-14T18:23:20.343Z,16.10
2023-05-14T18:25:48.514Z,14.65
2023-05-14T18:28:16.186Z,16.45
2023-05-14T18:30:43.854Z,14.90
2023-05-14T18:33:11.524Z,14.35
2023-05-14T18:35:39.117Z,15.40
2023-05-14T18:38:08.296Z,15.25
2023-05-14T18:40:35.730Z,14.98
2023-05-14T18:43:03.273Z,13.98
2023-05-14T18:45:30.919Z,13.50
2023-05-14T18:47:58.370Z,13.90
2023-05-14T18:50:25.977Z,13.95
2023-05-14T18:52:53.485Z,13.73
2023-05-14T18:55:21.055Z,13.65
2023-05-14T18:57:48.665Z,12.27
2023-05-14T19:00:16.447Z,14.75
2023-05-14T19:02:44.237Z,17.88
2023-05-14T19:05:11.714Z,13.38
2023-05-14T19:07:39.395Z,12.93
2023-05-14T19:10:07.934Z,14.02
2023-05-14T19:12:35.438Z,14.05
2023-05-14T19:15:03.181Z,15.25
2023-05-14T19:17:33.016Z,14.75
2023-05-14T19:20:00.549Z,15.65
2023-05-14T19:22:28.185Z,14.98
2023-05-14T19:24:55.786Z,15.38
2023-05-14T19:27:24.839Z,13.35
2023-05-14T19:29:52.321Z,14.50
2023-05-14T19:32:19.858Z,14.40
2023-05-14T19:34:48.065Z,15.25
2023-05-14T19:37:16.501Z,14.98
2023-05-14T19:39:44.052Z,16.73
2023-05-14T19:42:11.649Z,15.68
2023-05-14T19:44:39.371Z,15.43
2023-05-14T19:47:07.785Z,14.45
2023-05-14T19:49:35.279Z,18.08
2023-05-14T19:52:02.863Z,16.33
2023-05-14T19:54:30.344Z,15.82
2023-05-14T19:56:57.809Z,15.65
2023-05-14T19:59:25.642Z,15.05
2023-05-14T20:01:54.783Z,13.63
2023-05-14T20:04:22.330Z,14.95
2023-05-14T20:06:50.052Z,15.68
2023-05-14T20:09:17.535Z,14.18
2023-05-14T20:11:45.111Z,14.57
2023-05-14T20:14:12.742Z,14.63
2023-05-14T20:16:40.357Z,13.38
2023-05-14T20:19:08.396Z,15.38
2023-05-14T20:21:36.009Z,14.50
2023-05-14T20:24:03.747Z,13.13
2023-05-14T20:26:31.411Z,14.45
2023-05-14T20:28:58.846Z,14.95
2023-05-14T20:31:26.455Z,15.88
2023-05-14T20:33:54.157Z,14.52
2023-05-14T20:36:22.575Z,14.95
2023-05-14T20:38:50.590Z,14.60
2023-05-14T20:41:18.084Z,14.80
2023-05-14T20:43:45.772Z,15.93
2023-05-14T20:46:13.471Z,17.95
2023-05-14T20:48:41.003Z,18.05
2023-05-14T20:51:08.603Z,18.65
2023-05-14T20:53:39.538Z,19.27
2023-05-14T20:56:07.292Z,21.05
2023-05-14T20:58:35.851Z,20.33
2023-05-14T21:01:04.878Z,20.00
2023-05-14T21:03:32.632Z,19.95
2023-05-14T21:06:00.971Z,19.42
2023-05-14T21:08:28.438Z,21.08
2023-05-14T21:10:56.371Z,20.73
2023-05-14T21:13:23.920Z,21.13
2023-05-14T21:15:51.616Z,19.15
2023-05-14T21:18:19.129Z,21.08
2023-05-14T21:20:46.592Z,24.02
2023-05-14T21:23:15.012Z,24.33
2023-05-14T21:25:42.658Z,22.45
2023-05-14T21:28:10.260Z,23.75
2023-05-14T21:30:37.733Z,22.60
2023-05-14T21:33:05.361Z,21.40
2023-05-14T21:35:33.135Z,22.55
2023-05-14T21:38:00.819Z,23.48
2023-05-14T21:40:28.349Z,19.42
2023-05-14T21:42:55.808Z,18.95
2023-05-14T21:45:23.838Z,20.05
2023-05-14T21:47:51.571Z,18.17
2023-05-14T21:50:19.219Z,21.45
2023-05-14T21:52:46.964Z,21.50
2023-05-14T21:55:14.422Z,19.30
2023-05-14T21:57:41.881Z,21.65
2023-05-14T22:00:12.945Z,21.25
2023-05-14T22:02:42.540Z,18.60
2023-05-14T22:05:10.202Z,20.17
2023-05-14T22:07:37.728Z,18.33
2023-05-14T22:10:05.497Z,19.30
2023-05-14T22:12:33.055Z,20.30
2023-05-14T22:15:00.500Z,21.33
2023-05-14T22:17:30.891Z,21.65
2023-05-14T22:19:58.367Z,21.55
2023-05-14T22:22:25.893Z,23.10
2023-05-14T22:24:53.329Z,20.20
2023-05-14T22:27:20.850Z,21.38
2023-05-14T22:29:48.456Z,21.35
2023-05-14T22:32:16.039Z,18.08
2023-05-14T22:34:43.535Z,17.27
2023-05-14T22:37:10.986Z,19.83
2023-05-14T22:39:38.638Z,20.40
2023-05-14T22:42:06.593Z,21.27
2023-05-14T22:44:34.118Z,21.27
2023-05-14T22:47:01.603Z,20.88
2023-05-14T22:49:29.091Z,19.38
2023-05-14T22:51:56.598Z,20.30
2023-05-14T22:54:24.165Z,24.27
2023-05-14T22:56:51.845Z,22.67
2023-05-14T22:59:20.575Z,24.00
2023-05-14T23:01:49.804Z,26.10
2023-05-14T23:04:17.455Z,24.75
2023-05-14T23:06:45.100Z,26.52
2023-05-14T23:09:12.684Z,28.08
2023-05-14T23:11:40.242Z,28.33
2023-05-14T23:14:07.764Z,25.75
2023-05-14T23:16:35.561Z,29.75
2023-05-14T23:19:03.586Z,29.55
2023-05-14T23:21:31.728Z,32.17
2023-05-14T23:23:59.236Z,29.27
2023-05-14T23:26:26.765Z,36.92
2023-05-14T23:28:54.277Z,32.72
2023-05-14T23:31:21.912Z,31.23
2023-05-14T23:33:49.458Z,33.63
2023-05-14T23:36:16.940Z,31.70
2023-05-14T23:38:44.575Z,32.03
2023-05-14T23:41:11.996Z,34.88
2023-05-14T23:43:39.451Z,34.35
2023-05-14T23:46:07.179Z,35.45
2023-05-14T23:48:34.847Z,36.58
2023-05-14T23:51:02.383Z,40.80
2023-05-14T23:53:29.842Z,43.20
2023-05-14T23:55:57.462Z,44.92
2023-05-14T23:58:25.025Z,46.70
